createdAt,value
2023-04-22T00:00:14.362Z,2.60
2023-04-22T00:00:26.837Z,2.58
2023-04-22T00:00:38.834Z,2.53
2023-04-22T00:00:50.747Z,2.53
2023-04-22T00:01:02.801Z,2.55
2023-04-22T00:01:15.160Z,2.67
2023-04-22T00:01:27.082Z,2.50
2023-04-22T00:01:38.958Z,2.63
2023-04-22T00:01:51.217Z,2.50
2023-04-22T00:02:03.348Z,2.60
2023-04-22T00:02:17.272Z,2.65
2023-04-22T00:02:29.442Z,2.67
2023-04-22T00:02:41.635Z,2.70
2023-04-22T00:02:53.750Z,2.72
2023-04-22T00:03:05.976Z,2.97
2023-04-22T00:03:18.167Z,2.80
2023-04-22T00:03:30.429Z,2.78
2023-04-22T00:03:44.535Z,2.63
2023-04-22T00:03:56.801Z,2.70
2023-04-22T00:04:09.370Z,2.85
2023-04-22T00:04:21.920Z,2.80
2023-04-22T00:04:35.223Z,2.70
2023-04-22T00:04:47.590Z,2.70
2023-04-22T00:05:01.450Z,2.67
2023-04-22T00:05:17.055Z,2.53
2023-04-22T00:05:31.527Z,2.53
2023-04-22T00:05:44.877Z,2.67
2023-04-22T00:05:57.211Z,2.58
2023-04-22T00:06:09.468Z,2.50
2023-04-22T00:06:21.433Z,2.63
2023-04-22T00:06:35.066Z,2.80
2023-04-22T00:06:46.992Z,2.80
2023-04-22T00:06:58.888Z,2.85
2023-04-22T00:07:10.881Z,3.05
2023-04-22T00:07:22.794Z,2.97
2023-04-22T00:07:34.953Z,3.00
2023-04-22T00:07:46.977Z,3.10
2023-04-22T00:07:58.856Z,3.00
2023-04-22T00:08:10.827Z,2.75
2023-04-22T00:08:22.746Z,2.75
2023-04-22T00:08:34.707Z,2.80
2023-04-22T00:08:46.758Z,2.70
2023-04-22T00:08:58.704Z,2.70
2023-04-22T00:09:10.589Z,2.60
2023-04-22T00:09:22.479Z,2.50
2023-04-22T00:09:34.395Z,2.67
2023-04-22T00:09:46.336Z,2.85
2023-04-22T00:09:58.440Z,2.90
2023-04-22T00:10:11.580Z,2.90
2023-04-22T00:10:23.505Z,2.97
2023-04-22T00:10:35.438Z,2.95
2023-04-22T00:10:54.107Z,3.17
2023-04-22T00:11:06.510Z,2.97
2023-04-22T00:11:18.416Z,2.90
2023-04-22T00:11:30.560Z,2.78
2023-04-22T00:11:42.478Z,3.00
2023-04-22T00:11:54.434Z,2.90
2023-04-22T00:12:06.683Z,2.78
2023-04-22T00:12:18.623Z,2.85
2023-04-22T00:12:30.554Z,2.90
2023-04-22T00:12:42.515Z,2.92
2023-04-22T00:12:54.446Z,2.75
2023-04-22T00:13:06.446Z,2.72
2023-04-22T00:13:18.435Z,2.70
2023-04-22T00:13:30.446Z,2.70
2023-04-22T00:13:42.393Z,2.60
2023-04-22T00:13:54.404Z,2.80
2023-04-22T00:14:06.448Z,2.80
2023-04-22T00:14:18.794Z,2.90
2023-04-22T00:14:30.763Z,2.92
2023-04-22T00:14:42.700Z,3.00
2023-04-22T00:14:54.661Z,3.00
2023-04-22T00:15:07.255Z,2.85
2023-04-22T00:15:22.013Z,2.63
2023-04-22T00:15:34.048Z,2.55
2023-04-22T00:15:46.790Z,2.63
2023-04-22T00:16:06.031Z,2.80
2023-04-22T00:16:18.052Z,2.80
2023-04-22T00:16:30.050Z,2.88
2023-04-22T00:16:42.062Z,2.85
2023-04-22T00:16:54.055Z,2.78
2023-04-22T00:17:06.946Z,2.78
2023-04-22T00:17:18.995Z,2.80
2023-04-22T00:17:31.161Z,2.70
2023-04-22T00:17:43.142Z,2.60
2023-04-22T00:17:55.178Z,2.60
2023-04-22T00:18:13.576Z,2.60
2023-04-22T00:18:25.994Z,2.83
2023-04-22T00:18:37.927Z,3.00
2023-04-22T00:18:49.801Z,3.05
2023-04-22T00:19:01.740Z,2.90
2023-04-22T00:19:14.696Z,2.90
2023-04-22T00:19:26.685Z,2.75
2023-04-22T00:19:38.875Z,2.90
2023-04-22T00:19:51.082Z,3.10
2023-04-22T00:20:04.022Z,3.10
2023-04-22T00:20:16.289Z,2.90
2023-04-22T00:20:29.242Z,2.90
2023-04-22T00:20:43.672Z,2.97
2023-04-22T00:20:55.650Z,2.90
2023-04-22T00:21:07.890Z,2.85
2023-04-22T00:21:19.849Z,2.90
2023-04-22T00:21:32.627Z,2.83
2023-04-22T00:21:44.612Z,2.90
2023-04-22T00:21:56.537Z,3.10
2023-04-22T00:22:09.608Z,3.08
2023-04-22T00:22:21.670Z,2.92
2023-04-22T00:22:33.649Z,2.80
2023-04-22T00:22:45.608Z,2.90
2023-04-22T00:22:57.563Z,2.83
2023-04-22T00:23:10.334Z,2.63
2023-04-22T00:23:22.252Z,2.70
2023-04-22T00:23:34.154Z,2.90
2023-04-22T00:23:47.075Z,2.80
2023-04-22T00:23:59.007Z,2.80
2023-04-22T00:24:11.999Z,2.75
2023-04-22T00:24:23.914Z,2.90
2023-04-22T00:24:35.994Z,2.90
2023-04-22T00:24:47.922Z,2.78
2023-04-22T00:24:59.790Z,2.72
2023-04-22T00:25:11.744Z,2.80
2023-04-22T00:25:23.684Z,2.80
2023-04-22T00:25:35.672Z,2.80
2023-04-22T00:25:47.618Z,2.80
2023-04-22T00:26:00.416Z,2.80
2023-04-22T00:26:12.433Z,2.65
2023-04-22T00:26:24.482Z,2.80
2023-04-22T00:26:36.454Z,2.60
2023-04-22T00:26:48.358Z,2.67
2023-04-22T00:27:00.964Z,2.80
2023-04-22T00:27:12.870Z,2.75
2023-04-22T00:27:24.880Z,2.88
2023-04-22T00:27:36.857Z,3.20
2023-04-22T00:27:48.938Z,3.15
2023-04-22T00:28:02.348Z,3.00
2023-04-22T00:28:14.320Z,2.90
2023-04-22T00:28:26.234Z,2.80
2023-04-22T00:28:38.255Z,2.83
2023-04-22T00:28:50.580Z,2.80
2023-04-22T00:29:02.485Z,2.88
2023-04-22T00:29:14.475Z,2.53
2023-04-22T00:29:26.665Z,2.60
2023-04-22T00:29:39.566Z,2.65
2023-04-22T00:29:51.790Z,2.80
2023-04-22T00:30:04.932Z,2.80
2023-04-22T00:30:16.928Z,2.60
2023-04-22T00:30:28.850Z,2.60
2023-04-22T00:30:40.745Z,2.65
2023-04-22T00:30:52.743Z,2.60
2023-04-22T00:31:04.759Z,2.40
2023-04-22T00:31:16.791Z,2.60
2023-04-22T00:31:28.860Z,2.80
2023-04-22T00:31:40.857Z,2.80
2023-04-22T00:31:52.831Z,2.65
2023-04-22T00:32:05.597Z,2.80
2023-04-22T00:32:17.527Z,2.75
2023-04-22T00:32:29.444Z,2.80
2023-04-22T00:32:41.601Z,2.90
2023-04-22T00:32:53.625Z,2.80
2023-04-22T00:33:05.746Z,2.55
2023-04-22T00:33:17.728Z,2.53
2023-04-22T00:33:29.611Z,2.63
2023-04-22T00:33:42.659Z,2.63
2023-04-22T00:33:54.628Z,2.63
2023-04-22T00:34:06.653Z,2.67
2023-04-22T00:34:18.568Z,2.70
2023-04-22T00:34:30.663Z,2.60
2023-04-22T00:34:42.593Z,2.47
2023-04-22T00:34:54.574Z,2.50
2023-04-22T00:35:07.102Z,2.70
2023-04-22T00:35:19.022Z,2.50
2023-04-22T00:35:31.065Z,2.60
2023-04-22T00:35:43.005Z,2.72
2023-04-22T00:35:54.985Z,2.83
2023-04-22T00:36:06.963Z,2.72
2023-04-22T00:36:18.940Z,2.60
2023-04-22T00:36:31.642Z,2.60
2023-04-22T00:36:44.325Z,2.65
2023-04-22T00:36:57.073Z,2.72
2023-04-22T00:37:08.996Z,2.70
2023-04-22T00:37:20.948Z,2.60
2023-04-22T00:37:33.142Z,2.60
2023-04-22T00:37:45.219Z,2.70
2023-04-22T00:37:57.313Z,2.70
2023-04-22T00:38:09.275Z,2.70
2023-04-22T00:38:21.476Z,2.60
2023-04-22T00:38:33.447Z,2.72
2023-04-22T00:38:49.900Z,2.80
2023-04-22T00:39:01.875Z,2.70
2023-04-22T00:39:14.155Z,2.70
2023-04-22T00:39:26.157Z,2.58
2023-04-22T00:39:39.418Z,2.65
2023-04-22T00:39:51.733Z,2.83
2023-04-22T00:40:03.984Z,2.70
2023-04-22T00:40:16.005Z,2.33
2023-04-22T00:40:28.058Z,2.40
2023-04-22T00:40:40.120Z,2.47
2023-04-22T00:40:52.029Z,2.53
2023-04-22T00:41:04.461Z,2.50
2023-04-22T00:41:17.639Z,2.42
2023-04-22T00:41:30.976Z,2.45
2023-04-22T00:41:43.277Z,2.30
2023-04-22T00:41:55.343Z,2.30
2023-04-22T00:42:10.434Z,2.58
2023-04-22T00:42:22.881Z,2.80
2023-04-22T00:42:34.911Z,2.75
2023-04-22T00:42:49.967Z,2.42
2023-04-22T00:43:02.719Z,2.40
2023-04-22T00:43:16.836Z,2.67
2023-04-22T00:43:28.772Z,2.78
2023-04-22T00:43:40.718Z,2.67
2023-04-22T00:43:53.495Z,2.55
2023-04-22T00:44:08.641Z,2.45
2023-04-22T00:44:21.058Z,2.50
2023-04-22T00:44:33.086Z,2.42
2023-04-22T00:44:46.864Z,2.58
2023-04-22T00:44:59.153Z,2.70
2023-04-22T00:45:14.864Z,2.50
2023-04-22T00:45:26.989Z,2.55
2023-04-22T00:45:39.420Z,2.65
2023-04-22T00:45:51.372Z,2.60
2023-04-22T00:46:03.962Z,2.50
2023-04-22T00:46:22.832Z,2.53
2023-04-22T00:46:35.258Z,2.70
2023-04-22T00:46:48.244Z,2.60
2023-04-22T00:47:00.781Z,2.70
2023-04-22T00:47:13.077Z,2.85
2023-04-22T00:47:26.947Z,2.72
2023-04-22T00:47:39.149Z,2.67
2023-04-22T00:47:52.395Z,2.72
2023-04-22T00:48:05.043Z,2.70
2023-04-22T00:48:17.143Z,2.88
2023-04-22T00:48:30.733Z,2.90
2023-04-22T00:48:42.906Z,3.00
2023-04-22T00:48:55.183Z,3.13
2023-04-22T00:49:08.400Z,3.00
2023-04-22T00:49:20.440Z,2.63
2023-04-22T00:49:32.542Z,2.70
2023-04-22T00:49:44.676Z,2.80
2023-04-22T00:49:56.729Z,2.70
2023-04-22T00:50:08.915Z,2.70
2023-04-22T00:50:20.920Z,2.53
2023-04-22T00:50:33.092Z,2.58
2023-04-22T00:50:46.915Z,2.40
2023-04-22T00:51:01.082Z,2.35
2023-04-22T00:51:12.957Z,2.45
2023-04-22T00:51:24.832Z,2.70
2023-04-22T00:51:37.051Z,2.78
2023-04-22T00:51:48.949Z,2.53
2023-04-22T00:52:00.843Z,2.63
2023-04-22T00:52:12.853Z,2.58
2023-04-22T00:52:24.740Z,2.58
2023-04-22T00:52:36.735Z,2.60
2023-04-22T00:52:48.719Z,2.65
2023-04-22T00:53:00.781Z,2.58
2023-04-22T00:53:12.737Z,2.53
2023-04-22T00:53:24.642Z,2.55
2023-04-22T00:53:36.524Z,2.55
2023-04-22T00:53:48.456Z,2.60
2023-04-22T00:54:03.485Z,2.50
2023-04-22T00:54:15.421Z,2.60
2023-04-22T00:54:28.741Z,2.63
2023-04-22T00:54:40.692Z,2.83
2023-04-22T00:54:52.844Z,2.95
2023-04-22T00:55:05.415Z,3.00
2023-04-22T00:55:17.507Z,2.92
2023-04-22T00:55:29.809Z,3.00
2023-04-22T00:55:41.757Z,3.10
2023-04-22T00:55:54.393Z,3.00
2023-04-22T00:56:06.812Z,2.97
2023-04-22T00:56:23.452Z,2.88
2023-04-22T00:56:37.465Z,2.45
2023-04-22T00:56:49.590Z,2.47
2023-04-22T00:57:03.812Z,2.80
2023-04-22T00:57:15.995Z,2.90
2023-04-22T00:57:30.882Z,2.97
2023-04-22T00:57:43.284Z,2.90
2023-04-22T00:57:58.140Z,2.90
2023-04-22T00:58:10.426Z,2.83
2023-04-22T00:58:25.701Z,2.80
2023-04-22T00:58:37.963Z,2.90
2023-04-22T00:58:50.059Z,2.75
2023-04-22T00:59:02.246Z,2.53
2023-04-22T00:59:14.176Z,2.58
2023-04-22T00:59:26.786Z,2.70
2023-04-22T00:59:38.901Z,2.70
2023-04-22T00:59:51.215Z,2.80
2023-04-22T01:00:05.217Z,2.90
2023-04-22T01:00:17.632Z,2.78
2023-04-22T01:00:30.092Z,2.72
2023-04-22T01:00:42.297Z,2.67
2023-04-22T01:00:54.313Z,2.50
2023-04-22T01:01:06.859Z,2.55
2023-04-22T01:01:18.941Z,2.50
2023-04-22T01:01:31.525Z,2.60
2023-04-22T01:01:44.256Z,2.60
2023-04-22T01:01:56.481Z,2.60
2023-04-22T01:02:08.467Z,2.50
2023-04-22T01:02:20.675Z,2.53
2023-04-22T01:02:33.214Z,2.60
2023-04-22T01:02:46.397Z,2.70
2023-04-22T01:02:58.597Z,2.72
2023-04-22T01:03:11.996Z,2.83
2023-04-22T01:03:24.339Z,2.70
2023-04-22T01:03:38.886Z,2.58
2023-04-22T01:03:52.909Z,2.60
2023-04-22T01:04:06.599Z,2.50
2023-04-22T01:04:19.899Z,2.47
2023-04-22T01:04:31.972Z,2.55
2023-04-22T01:04:44.756Z,2.50
2023-04-22T01:04:56.956Z,2.58
2023-04-22T01:05:09.623Z,2.60
2023-04-22T01:05:21.946Z,2.47
2023-04-22T01:05:34.566Z,2.40
2023-04-22T01:05:48.454Z,2.42
2023-04-22T01:06:00.435Z,2.60
2023-04-22T01:06:12.886Z,2.60
2023-04-22T01:06:24.796Z,2.50
2023-04-22T01:06:37.449Z,2.60
2023-04-22T01:06:51.273Z,2.60
2023-04-22T01:07:03.210Z,2.40
2023-04-22T01:07:16.573Z,2.40
2023-04-22T01:07:28.660Z,2.70
2023-04-22T01:07:40.629Z,2.65
2023-04-22T01:07:52.609Z,2.40
2023-04-22T01:08:04.592Z,2.50
2023-04-22T01:08:17.429Z,2.70
2023-04-22T01:08:32.362Z,2.65
2023-04-22T01:08:44.444Z,2.45
2023-04-22T01:08:56.375Z,2.40
2023-04-22T01:09:08.355Z,2.20
2023-04-22T01:09:23.417Z,2.42
2023-04-22T01:09:36.335Z,2.50
2023-04-22T01:09:48.276Z,2.55
2023-04-22T01:10:00.600Z,2.45
2023-04-22T01:10:12.639Z,2.22
2023-04-22T01:10:24.638Z,2.20
2023-04-22T01:10:36.700Z,2.42
2023-04-22T01:10:48.601Z,2.67
2023-04-22T01:11:00.907Z,2.63
2023-04-22T01:11:13.715Z,2.53
2023-04-22T01:11:25.784Z,2.40
2023-04-22T01:11:40.908Z,2.40
2023-04-22T01:11:53.016Z,2.40
2023-04-22T01:12:05.503Z,2.42
2023-04-22T01:12:17.390Z,2.50
2023-04-22T01:12:29.376Z,2.60
2023-04-22T01:12:41.371Z,2.42
2023-04-22T01:12:53.313Z,2.40
2023-04-22T01:13:06.756Z,2.35
2023-04-22T01:13:18.653Z,2.40
2023-04-22T01:13:30.540Z,2.50
2023-04-22T01:13:42.582Z,2.53
2023-04-22T01:13:54.532Z,2.60
2023-04-22T01:14:06.506Z,2.38
2023-04-22T01:14:18.895Z,2.40
2023-04-22T01:14:30.869Z,2.45
2023-04-22T01:14:42.961Z,2.60
2023-04-22T01:14:54.886Z,2.58
2023-04-22T01:15:07.773Z,2.35
2023-04-22T01:15:20.370Z,2.35
2023-04-22T01:15:32.772Z,2.58
2023-04-22T01:15:45.785Z,2.60
2023-04-22T01:15:57.775Z,2.60
2023-04-22T01:16:10.827Z,2.60
2023-04-22T01:16:23.151Z,2.70
2023-04-22T01:16:37.610Z,2.70
2023-04-22T01:16:51.214Z,2.60
2023-04-22T01:17:03.542Z,2.53
2023-04-22T01:17:16.350Z,2.50
2023-04-22T01:17:29.336Z,2.47
2023-04-22T01:17:42.449Z,2.42
2023-04-22T01:17:54.834Z,2.40
2023-04-22T01:18:07.237Z,2.30
2023-04-22T01:18:19.867Z,2.13
2023-04-22T01:18:32.750Z,2.28
2023-04-22T01:18:45.284Z,2.30
2023-04-22T01:18:57.359Z,2.25
2023-04-22T01:19:10.979Z,2.33
2023-04-22T01:19:23.677Z,2.67
2023-04-22T01:19:35.749Z,2.75
2023-04-22T01:19:48.669Z,2.78
2023-04-22T01:20:01.547Z,2.50
2023-04-22T01:20:13.900Z,2.60
2023-04-22T01:20:29.385Z,2.65
2023-04-22T01:20:41.775Z,2.45
2023-04-22T01:20:53.864Z,2.28
2023-04-22T01:21:07.087Z,2.20
2023-04-22T01:21:19.449Z,2.28
2023-04-22T01:21:33.550Z,2.47
2023-04-22T01:21:49.278Z,2.70
2023-04-22T01:22:02.329Z,2.63
2023-04-22T01:22:15.101Z,2.42
2023-04-22T01:22:35.507Z,2.47
2023-04-22T01:22:50.657Z,2.30
2023-04-22T01:23:06.543Z,2.53
2023-04-22T01:23:22.590Z,2.90
2023-04-22T01:23:34.612Z,2.78
2023-04-22T01:23:46.647Z,2.85
2023-04-22T01:23:58.609Z,2.80
2023-04-22T01:24:10.663Z,2.80
2023-04-22T01:24:22.678Z,2.75
2023-04-22T01:24:34.776Z,2.80
2023-04-22T01:24:46.846Z,2.60
2023-04-22T01:24:59.072Z,2.58
2023-04-22T01:25:11.981Z,2.65
2023-04-22T01:25:25.230Z,2.60
2023-04-22T01:25:37.136Z,2.65
2023-04-22T01:25:49.671Z,2.70
2023-04-22T01:26:02.767Z,2.65
2023-04-22T01:26:14.837Z,2.60
2023-04-22T01:26:26.987Z,2.70
2023-04-22T01:26:39.095Z,2.67
2023-04-22T01:26:51.171Z,2.40
2023-04-22T01:27:03.124Z,2.50
2023-04-22T01:27:15.103Z,2.50
2023-04-22T01:27:27.249Z,2.58
2023-04-22T01:27:40.533Z,2.55
2023-04-22T01:27:53.899Z,2.72
2023-04-22T01:28:06.838Z,2.67
2023-04-22T01:28:18.824Z,2.58
2023-04-22T01:28:31.511Z,2.47
2023-04-22T01:28:43.616Z,2.63
2023-04-22T01:28:56.055Z,2.83
2023-04-22T01:29:08.184Z,2.72
2023-04-22T01:29:20.790Z,2.50
2023-04-22T01:29:32.990Z,2.60
2023-04-22T01:29:45.357Z,2.75
2023-04-22T01:29:57.336Z,2.50
2023-04-22T01:30:10.886Z,2.60
2023-04-22T01:30:22.865Z,2.50
2023-04-22T01:30:35.266Z,2.53
2023-04-22T01:30:48.615Z,2.58
2023-04-22T01:31:00.879Z,2.53
2023-04-22T01:31:12.932Z,2.60
2023-04-22T01:31:25.198Z,2.80
2023-04-22T01:31:38.223Z,2.75
2023-04-22T01:31:54.464Z,2.70
2023-04-22T01:32:06.936Z,2.90
2023-04-22T01:32:19.647Z,2.97
2023-04-22T01:32:32.170Z,2.58
2023-04-22T01:32:44.631Z,2.40
2023-04-22T01:32:56.959Z,2.50
2023-04-22T01:33:10.529Z,2.50
2023-04-22T01:33:23.199Z,2.55
2023-04-22T01:33:35.427Z,2.60
2023-04-22T01:33:48.274Z,2.60
2023-04-22T01:34:00.867Z,2.42
2023-04-22T01:34:12.840Z,2.70
2023-04-22T01:34:24.983Z,2.75
2023-04-22T01:34:37.037Z,2.60
2023-04-22T01:34:49.093Z,2.40
2023-04-22T01:35:01.085Z,2.63
2023-04-22T01:35:13.153Z,2.95
2023-04-22T01:35:25.286Z,2.90
2023-04-22T01:35:37.704Z,2.90
2023-04-22T01:35:49.763Z,2.80
2023-04-22T01:36:01.838Z,2.67
2023-04-22T01:36:14.029Z,2.70
2023-04-22T01:36:26.267Z,2.67
2023-04-22T01:36:39.084Z,2.63
2023-04-22T01:36:51.396Z,2.70
2023-04-22T01:37:07.186Z,2.70
2023-04-22T01:37:19.209Z,2.70
2023-04-22T01:37:31.256Z,2.80
2023-04-22T01:37:43.203Z,2.78
2023-04-22T01:37:57.485Z,2.72
2023-04-22T01:38:11.448Z,2.72
2023-04-22T01:38:23.435Z,2.60
2023-04-22T01:38:35.496Z,2.58
2023-04-22T01:38:47.666Z,2.70
2023-04-22T01:39:00.268Z,2.70
2023-04-22T01:39:12.947Z,2.70
2023-04-22T01:39:24.943Z,2.80
2023-04-22T01:39:37.511Z,2.80
2023-04-22T01:39:50.286Z,2.80
2023-04-22T01:40:04.631Z,2.80
2023-04-22T01:40:19.775Z,2.80
2023-04-22T01:40:32.746Z,2.80
2023-04-22T01:40:44.661Z,2.80
2023-04-22T01:40:56.613Z,2.80
2023-04-22T01:41:08.924Z,2.78
2023-04-22T01:41:21.149Z,2.63
2023-04-22T01:41:34.216Z,2.55
2023-04-22T01:41:46.892Z,2.70
2023-04-22T01:41:59.621Z,2.80
2023-04-22T01:42:13.783Z,2.78
2023-04-22T01:42:26.459Z,2.85
2023-04-22T01:42:38.935Z,2.90
2023-04-22T01:42:52.219Z,2.83
2023-04-22T01:43:04.486Z,2.80
2023-04-22T01:43:16.408Z,2.85
2023-04-22T01:43:30.788Z,2.83
2023-04-22T01:43:43.158Z,2.72
2023-04-22T01:43:57.814Z,2.60
2023-04-22T01:44:09.705Z,2.53
2023-04-22T01:44:21.568Z,2.47
2023-04-22T01:44:33.442Z,2.50
2023-04-22T01:44:45.424Z,2.70
2023-04-22T01:44:57.803Z,2.88
2023-04-22T01:45:10.277Z,2.80
2023-04-22T01:45:23.239Z,2.80
2023-04-22T01:45:35.300Z,2.75
2023-04-22T01:45:47.311Z,2.83
2023-04-22T01:46:01.845Z,2.80
2023-04-22T01:46:13.858Z,2.88
2023-04-22T01:46:27.683Z,2.97
2023-04-22T01:46:39.737Z,2.72
2023-04-22T01:46:51.663Z,2.60
2023-04-22T01:47:04.768Z,2.78
2023-04-22T01:47:19.947Z,3.00
2023-04-22T01:47:31.941Z,2.90
2023-04-22T01:47:44.704Z,2.70
2023-04-22T01:47:57.689Z,2.97
2023-04-22T01:48:11.160Z,2.92
2023-04-22T01:48:24.161Z,3.00
2023-04-22T01:48:37.114Z,3.05
2023-04-22T01:48:51.512Z,2.85
2023-04-22T01:49:03.485Z,2.88
2023-04-22T01:49:15.581Z,3.03
2023-04-22T01:49:28.626Z,2.95
2023-04-22T01:49:40.840Z,2.90
2023-04-22T01:49:53.190Z,3.05
2023-04-22T01:50:05.684Z,2.90
2023-04-22T01:50:17.868Z,2.97
2023-04-22T01:50:29.829Z,3.13
2023-04-22T01:50:41.784Z,3.13
2023-04-22T01:50:55.388Z,3.20
2023-04-22T01:51:07.275Z,3.10
2023-04-22T01:51:23.581Z,2.85
2023-04-22T01:51:35.506Z,2.90
2023-04-22T01:51:47.448Z,3.10
2023-04-22T01:51:59.401Z,2.95
2023-04-22T01:52:11.486Z,2.80
2023-04-22T01:52:27.330Z,2.83
2023-04-22T01:52:39.548Z,2.95
2023-04-22T01:52:51.951Z,2.90
2023-04-22T01:53:03.911Z,2.83
2023-04-22T01:53:15.864Z,2.90
2023-04-22T01:53:27.960Z,2.92
2023-04-22T01:53:39.850Z,2.83
2023-04-22T01:53:51.904Z,3.05
2023-04-22T01:54:04.247Z,3.08
2023-04-22T01:54:16.231Z,3.10
2023-04-22T01:54:28.272Z,2.83
2023-04-22T01:54:41.238Z,2.90
2023-04-22T01:54:53.471Z,3.00
2023-04-22T01:55:07.082Z,3.00
2023-04-22T01:55:19.346Z,2.80
2023-04-22T01:55:35.865Z,2.78
2023-04-22T01:55:48.904Z,3.28
2023-04-22T01:56:01.322Z,3.22
2023-04-22T01:56:13.308Z,3.22
2023-04-22T01:56:25.302Z,3.10
2023-04-22T01:56:38.766Z,3.05
2023-04-22T01:56:54.776Z,2.92
2023-04-22T01:57:11.301Z,2.85
2023-04-22T01:57:26.948Z,2.85
2023-04-22T01:57:39.052Z,3.20
2023-04-22T01:57:52.231Z,3.30
2023-04-22T01:58:05.279Z,3.00
2023-04-22T01:58:17.208Z,2.72
2023-04-22T01:58:29.700Z,2.70
2023-04-22T01:58:42.006Z,2.83
2023-04-22T01:58:53.947Z,2.85
2023-04-22T01:59:07.120Z,2.90
2023-04-22T01:59:20.531Z,2.90
2023-04-22T01:59:32.410Z,3.05
2023-04-22T01:59:44.346Z,3.35
2023-04-22T01:59:56.396Z,3.42
2023-04-22T02:00:09.325Z,3.20
2023-04-22T02:00:21.294Z,3.03
2023-04-22T02:00:33.241Z,2.90
2023-04-22T02:00:45.601Z,2.70
2023-04-22T02:00:57.723Z,2.80
2023-04-22T02:01:11.291Z,3.00
2023-04-22T02:01:23.696Z,3.00
2023-04-22T02:01:35.689Z,3.05
2023-04-22T02:01:48.317Z,3.13
2023-04-22T02:02:00.764Z,3.30
2023-04-22T02:02:12.844Z,3.10
2023-04-22T02:02:24.969Z,3.00
2023-04-22T02:02:37.038Z,3.10
2023-04-22T02:02:49.129Z,3.10
2023-04-22T02:03:01.278Z,3.17
2023-04-22T02:03:13.554Z,3.22
2023-04-22T02:03:25.672Z,3.00
2023-04-22T02:03:37.930Z,3.15
2023-04-22T02:03:49.899Z,3.20
2023-04-22T02:04:02.946Z,3.30
2023-04-22T02:04:14.978Z,3.30
2023-04-22T02:04:26.973Z,3.30
2023-04-22T02:04:38.945Z,3.20
2023-04-22T02:04:50.889Z,3.10
2023-04-22T02:05:03.007Z,3.20
2023-04-22T02:05:16.036Z,3.33
2023-04-22T02:05:28.270Z,3.08
2023-04-22T02:05:40.439Z,2.80
2023-04-22T02:05:52.367Z,2.90
2023-04-22T02:06:04.592Z,3.10
2023-04-22T02:06:16.496Z,3.10
2023-04-22T02:06:28.427Z,3.25
2023-04-22T02:06:40.551Z,3.22
2023-04-22T02:06:52.460Z,3.15
2023-04-22T02:07:04.452Z,3.10
2023-04-22T02:07:16.369Z,3.00
2023-04-22T02:07:28.241Z,2.92
2023-04-22T02:07:46.032Z,3.05
2023-04-22T02:07:58.009Z,3.03
2023-04-22T02:08:09.906Z,3.30
2023-04-22T02:08:23.202Z,3.35
2023-04-22T02:08:35.165Z,3.30
2023-04-22T02:08:47.101Z,3.30
2023-04-22T02:08:59.027Z,3.30
2023-04-22T02:09:10.906Z,3.20
2023-04-22T02:09:22.894Z,3.03
2023-04-22T02:09:35.100Z,2.95
2023-04-22T02:09:49.441Z,3.05
2023-04-22T02:10:04.887Z,3.38
2023-04-22T02:10:16.854Z,3.20
2023-04-22T02:10:29.914Z,3.17
2023-04-22T02:10:41.848Z,3.20
2023-04-22T02:10:53.928Z,3.22
2023-04-22T02:11:05.970Z,3.20
2023-04-22T02:11:17.873Z,3.17
2023-04-22T02:11:29.819Z,3.05
2023-04-22T02:11:41.740Z,3.00
2023-04-22T02:11:53.654Z,3.10
2023-04-22T02:12:05.773Z,3.17
2023-04-22T02:12:17.713Z,3.50
2023-04-22T02:12:29.721Z,3.47
2023-04-22T02:12:41.697Z,3.60
2023-04-22T02:12:53.641Z,3.20
2023-04-22T02:13:05.823Z,3.38
2023-04-22T02:13:18.644Z,3.33
2023-04-22T02:13:38.454Z,3.42
2023-04-22T02:13:50.979Z,3.22
2023-04-22T02:14:02.930Z,3.10
2023-04-22T02:14:15.209Z,3.22
2023-04-22T02:14:27.169Z,3.20
2023-04-22T02:14:39.926Z,3.17
2023-04-22T02:14:51.844Z,3.08
2023-04-22T02:15:04.427Z,3.33
2023-04-22T02:15:16.439Z,3.60
2023-04-22T02:15:28.460Z,3.40
2023-04-22T02:15:41.150Z,3.13
2023-04-22T02:15:53.259Z,3.00
2023-04-22T02:16:06.055Z,3.00
2023-04-22T02:16:18.156Z,3.08
2023-04-22T02:16:31.754Z,3.10
2023-04-22T02:16:43.992Z,3.45
2023-04-22T02:16:55.957Z,3.30
2023-04-22T02:17:07.967Z,3.05
2023-04-22T02:17:19.876Z,2.95
2023-04-22T02:17:31.796Z,3.10
2023-04-22T02:17:43.866Z,3.30
2023-04-22T02:18:00.429Z,3.30
2023-04-22T02:18:12.405Z,3.30
2023-04-22T02:18:24.277Z,3.30
2023-04-22T02:18:36.543Z,3.13
2023-04-22T02:18:48.604Z,3.20
2023-04-22T02:19:00.723Z,3.10
2023-04-22T02:19:12.844Z,2.95
2023-04-22T02:19:24.751Z,3.13
2023-04-22T02:19:36.699Z,3.33
2023-04-22T02:19:48.706Z,3.40
2023-04-22T02:20:00.749Z,3.30
2023-04-22T02:20:14.075Z,3.35
2023-04-22T02:20:26.009Z,3.30
2023-04-22T02:20:37.927Z,3.22
2023-04-22T02:20:49.829Z,3.10
2023-04-22T02:21:01.933Z,3.30
2023-04-22T02:21:13.837Z,3.20
2023-04-22T02:21:28.567Z,3.10
2023-04-22T02:21:40.527Z,3.13
2023-04-22T02:21:52.626Z,3.20
2023-04-22T02:22:04.624Z,3.50
2023-04-22T02:22:17.343Z,3.50
2023-04-22T02:22:29.628Z,3.30
2023-04-22T02:22:43.933Z,3.30
2023-04-22T02:22:55.909Z,3.30
2023-04-22T02:23:11.316Z,3.22
2023-04-22T02:23:24.026Z,3.30
2023-04-22T02:23:37.423Z,3.25
2023-04-22T02:23:49.407Z,3.22
2023-04-22T02:24:01.438Z,3.22
2023-04-22T02:24:13.340Z,3.28
2023-04-22T02:24:25.452Z,3.30
2023-04-22T02:24:37.361Z,3.30
2023-04-22T02:24:49.439Z,3.40
2023-04-22T02:25:01.589Z,3.55
2023-04-22T02:25:13.967Z,3.22
2023-04-22T02:25:26.888Z,3.20
2023-04-22T02:25:39.495Z,3.10
2023-04-22T02:25:52.765Z,3.20
2023-04-22T02:26:05.125Z,3.30
2023-04-22T02:26:17.007Z,3.25
2023-04-22T02:26:28.938Z,3.15
2023-04-22T02:26:41.463Z,3.35
2023-04-22T02:26:53.379Z,3.50
2023-04-22T02:27:05.308Z,3.55
2023-04-22T02:27:17.298Z,3.45
2023-04-22T02:27:29.221Z,3.38
2023-04-22T02:27:41.218Z,3.28
2023-04-22T02:27:53.159Z,3.20
2023-04-22T02:28:05.238Z,3.30
2023-04-22T02:28:19.699Z,3.17
2023-04-22T02:28:32.056Z,3.20
2023-04-22T02:28:43.996Z,3.30
2023-04-22T02:28:55.997Z,3.30
2023-04-22T02:29:07.925Z,3.25
2023-04-22T02:29:19.898Z,3.40
2023-04-22T02:29:32.287Z,3.42
2023-04-22T02:29:44.439Z,3.30
2023-04-22T02:29:56.314Z,3.20
2023-04-22T02:30:09.637Z,3.17
2023-04-22T02:30:22.187Z,3.35
2023-04-22T02:30:34.202Z,3.47
2023-04-22T02:30:46.763Z,3.38
2023-04-22T02:30:58.667Z,3.15
2023-04-22T02:31:10.700Z,3.03
2023-04-22T02:31:22.742Z,3.03
2023-04-22T02:31:34.822Z,3.22
2023-04-22T02:31:46.815Z,3.25
2023-04-22T02:32:01.723Z,3.30
2023-04-22T02:32:13.926Z,3.60
2023-04-22T02:32:26.934Z,3.60
2023-04-22T02:32:40.114Z,3.38
2023-04-22T02:32:52.164Z,3.38
2023-04-22T02:33:04.137Z,3.50
2023-04-22T02:33:16.160Z,3.58
2023-04-22T02:33:28.104Z,3.60
2023-04-22T02:33:40.073Z,3.60
2023-04-22T02:33:51.981Z,3.55
2023-04-22T02:34:03.984Z,3.45
2023-04-22T02:34:16.128Z,3.42
2023-04-22T02:34:28.041Z,3.30
2023-04-22T02:34:39.976Z,3.50
2023-04-22T02:34:52.372Z,3.33
2023-04-22T02:35:05.310Z,3.28
2023-04-22T02:35:17.308Z,3.60
2023-04-22T02:35:29.240Z,3.60
2023-04-22T02:35:41.255Z,3.47
2023-04-22T02:35:53.159Z,3.40
2023-04-22T02:36:05.251Z,3.28
2023-04-22T02:36:17.230Z,3.35
2023-04-22T02:36:29.160Z,3.78
2023-04-22T02:36:41.064Z,3.80
2023-04-22T02:36:53.097Z,3.58
2023-04-22T02:37:05.595Z,3.38
2023-04-22T02:37:19.114Z,3.40
2023-04-22T02:37:31.090Z,3.50
2023-04-22T02:37:42.993Z,3.50
2023-04-22T02:37:55.162Z,3.50
2023-04-22T02:38:07.088Z,3.58
2023-04-22T02:38:19.768Z,3.72
2023-04-22T02:38:31.688Z,3.67
2023-04-22T02:38:43.796Z,3.72
2023-04-22T02:38:55.696Z,3.63
2023-04-22T02:39:07.667Z,3.50
2023-04-22T02:39:19.603Z,3.35
2023-04-22T02:39:31.502Z,3.38
2023-04-22T02:39:43.421Z,3.40
2023-04-22T02:39:55.503Z,3.78
2023-04-22T02:40:08.795Z,3.78
2023-04-22T02:40:20.910Z,3.55
2023-04-22T02:40:32.850Z,3.60
2023-04-22T02:40:44.739Z,3.75
2023-04-22T02:40:56.666Z,3.67
2023-04-22T02:41:08.654Z,3.60
2023-04-22T02:41:20.961Z,3.60
2023-04-22T02:41:32.865Z,3.63
2023-04-22T02:41:44.791Z,3.63
2023-04-22T02:41:56.830Z,3.80
2023-04-22T02:42:08.738Z,3.60
2023-04-22T02:42:20.670Z,3.55
2023-04-22T02:42:32.806Z,3.90
2023-04-22T02:42:44.742Z,4.10
2023-04-22T02:42:56.676Z,3.83
2023-04-22T02:43:08.622Z,3.70
2023-04-22T02:43:20.599Z,3.60
2023-04-22T02:43:35.428Z,3.50
2023-04-22T02:43:47.400Z,3.50
2023-04-22T02:43:59.363Z,3.60
2023-04-22T02:44:11.255Z,3.55
2023-04-22T02:44:23.155Z,3.55
2023-04-22T02:44:35.157Z,3.45
2023-04-22T02:44:47.085Z,3.60
2023-04-22T02:44:59.165Z,3.90
2023-04-22T02:45:11.476Z,3.92
2023-04-22T02:45:23.393Z,3.88
2023-04-22T02:45:35.397Z,3.67
2023-04-22T02:45:47.361Z,3.67
2023-04-22T02:45:59.294Z,3.70
2023-04-22T02:46:12.964Z,3.50
2023-04-22T02:46:24.999Z,3.80
2023-04-22T02:46:36.964Z,3.90
2023-04-22T02:46:48.951Z,3.80
2023-04-22T02:47:01.180Z,3.80